EZY95V LFBD-EGKK
Flight info
| Callsign | EZY95V |
|---|---|
| Flight time | 1h 9m |
| Altitude | 34000 |
| Route | CNA DCT MANAK DCT TIRAV DCT DIXAD DCT NTS DCT BAKUL DCT REN DCT UPALO DCT REVTU DCT ODREP UP88 VASUX |
| Aircraft | A320/M-SDE3FGHIRWY/LB1 |
Departure
| Time | 2026-05-03 20:15 |
|---|---|
| Airport | Bordeaux–Mérignac Airport (LFBD) |
Arrival
| Time | 2026-05-03 21:25 |
|---|---|
| Airport | London Gatwick Airport (EGKK) |
| Time | Latitude | Longitude | Altitude | Speed | Heading |
|---|---|---|---|---|---|
| 2026-05-03 20:15 | 44.91602 | -0.85815 | 9962 ft | 297 kts | 356° |
| 2026-05-03 20:15 | 44.93727 | -0.85946 | 10374 ft | 317 kts | 356° |
| 2026-05-03 20:15 | 44.95224 | -0.86041 | 10546 ft | 333 kts | 356° |
| 2026-05-03 20:15 | 44.97595 | -0.86189 | 11022 ft | 346 kts | 356° |
| 2026-05-03 20:16 | 45.00023 | -0.86341 | 11707 ft | 353 kts | 355° |
| 2026-05-03 20:16 | 45.02495 | -0.86495 | 12416 ft | 358 kts | 355° |
| 2026-05-03 20:16 | 45.05004 | -0.86651 | 13143 ft | 363 kts | 355° |
| 2026-05-03 20:16 | 45.07541 | -0.86815 | 13845 ft | 368 kts | 355° |
| 2026-05-03 20:17 | 45.10120 | -0.86983 | 14486 ft | 373 kts | 355° |
| 2026-05-03 20:17 | 45.12723 | -0.87151 | 15132 ft | 377 kts | 355° |
| 2026-05-03 20:17 | 45.15356 | -0.87318 | 15777 ft | 380 kts | 355° |
| 2026-05-03 20:17 | 45.18011 | -0.87486 | 16417 ft | 384 kts | 354° |
| 2026-05-03 20:18 | 45.20699 | -0.87657 | 17036 ft | 389 kts | 354° |
| 2026-05-03 20:18 | 45.23415 | -0.87831 | 17646 ft | 393 kts | 354° |
| 2026-05-03 20:18 | 45.26163 | -0.88007 | 18272 ft | 397 kts | 354° |
| 2026-05-03 20:18 | 45.28935 | -0.88182 | 18806 ft | 401 kts | 354° |
| 2026-05-03 20:19 | 45.31738 | -0.88362 | 19333 ft | 405 kts | 354° |
| 2026-05-03 20:19 | 45.34570 | -0.88548 | 19860 ft | 410 kts | 354° |
| 2026-05-03 20:19 | 45.37435 | -0.88734 | 20385 ft | 414 kts | 354° |
| 2026-05-03 20:19 | 45.40333 | -0.88920 | 20908 ft | 419 kts | 354° |
| 2026-05-03 20:20 | 45.43254 | -0.89109 | 21423 ft | 423 kts | 354° |
| 2026-05-03 20:20 | 45.46219 | -0.89301 | 21947 ft | 428 kts | 354° |
| 2026-05-03 20:20 | 45.49200 | -0.89493 | 22459 ft | 432 kts | 354° |
| 2026-05-03 20:20 | 45.52224 | -0.89685 | 22956 ft | 436 kts | 354° |
| 2026-05-03 20:21 | 45.55268 | -0.89879 | 23439 ft | 441 kts | 354° |
| 2026-05-03 20:21 | 45.58344 | -0.90076 | 23830 ft | 445 kts | 354° |
| 2026-05-03 20:21 | 45.61441 | -0.90273 | 23932 ft | 444 kts | 354° |
| 2026-05-03 20:21 | 45.64511 | -0.90516 | 23959 ft | 439 kts | 349° |
| 2026-05-03 20:22 | 45.67483 | -0.91362 | 23962 ft | 434 kts | 342° |
| 2026-05-03 20:22 | 45.70426 | -0.92325 | 23961 ft | 434 kts | 342° |
| 2026-05-03 20:22 | 45.73370 | -0.93295 | 23961 ft | 434 kts | 342° |
| 2026-05-03 20:22 | 45.76311 | -0.94269 | 23962 ft | 434 kts | 342° |
| 2026-05-03 20:23 | 45.79249 | -0.95246 | 23963 ft | 434 kts | 342° |
| 2026-05-03 20:23 | 45.82190 | -0.96222 | 23961 ft | 434 kts | 342° |
| 2026-05-03 20:23 | 45.85130 | -0.97194 | 23958 ft | 434 kts | 342° |
| 2026-05-03 20:23 | 45.88115 | -0.98187 | 24032 ft | 446 kts | 342° |
| 2026-05-03 20:24 | 45.91170 | -0.99213 | 24152 ft | 457 kts | 342° |
| 2026-05-03 20:24 | 45.94299 | -1.00267 | 24272 ft | 466 kts | 342° |
| 2026-05-03 20:24 | 45.97487 | -1.01336 | 24410 ft | 475 kts | 342° |
| 2026-05-03 20:24 | 46.00732 | -1.02421 | 24531 ft | 482 kts | 342° |
| 2026-05-03 20:25 | 46.04029 | -1.03525 | 24650 ft | 489 kts | 342° |
| 2026-05-03 20:25 | 46.07346 | -1.04642 | 24816 ft | 493 kts | 342° |
| 2026-05-03 20:25 | 46.10693 | -1.05766 | 25108 ft | 494 kts | 342° |
| 2026-05-03 20:25 | 46.14038 | -1.06886 | 25422 ft | 494 kts | 342° |
| 2026-05-03 20:26 | 46.17394 | -1.08009 | 25768 ft | 495 kts | 342° |
| 2026-05-03 20:26 | 46.20747 | -1.09132 | 26095 ft | 495 kts | 342° |
| 2026-05-03 20:26 | 46.24063 | -1.10245 | 26424 ft | 496 kts | 342° |
| 2026-05-03 20:26 | 46.27474 | -1.11392 | 26761 ft | 496 kts | 342° |
| 2026-05-03 20:27 | 46.30788 | -1.12514 | 27096 ft | 496 kts | 342° |
| 2026-05-03 20:27 | 46.34152 | -1.13655 | 27440 ft | 497 kts | 342° |
| 2026-05-03 20:27 | 46.37515 | -1.14797 | 27808 ft | 497 kts | 341° |
| 2026-05-03 20:27 | 46.40889 | -1.15943 | 28159 ft | 498 kts | 341° |
| 2026-05-03 20:28 | 46.44257 | -1.17087 | 28509 ft | 498 kts | 341° |
| 2026-05-03 20:28 | 46.47636 | -1.18236 | 28880 ft | 498 kts | 341° |
| 2026-05-03 20:28 | 46.51007 | -1.19385 | 29249 ft | 499 kts | 341° |
| 2026-05-03 20:28 | 46.54382 | -1.20538 | 29620 ft | 499 kts | 341° |
| 2026-05-03 20:29 | 46.57756 | -1.21696 | 30115 ft | 497 kts | 342° |
| 2026-05-03 20:29 | 46.61105 | -1.22840 | 30615 ft | 492 kts | 341° |
| 2026-05-03 20:29 | 46.64434 | -1.23974 | 31004 ft | 491 kts | 341° |
| 2026-05-03 20:29 | 46.67752 | -1.25109 | 31363 ft | 490 kts | 341° |
| 2026-05-03 20:30 | 46.71071 | -1.26251 | 31705 ft | 490 kts | 341° |
| 2026-05-03 20:30 | 46.74387 | -1.27392 | 32046 ft | 489 kts | 341° |
| 2026-05-03 20:30 | 46.77697 | -1.28532 | 32378 ft | 489 kts | 341° |
| 2026-05-03 20:30 | 46.81008 | -1.29671 | 32721 ft | 489 kts | 341° |
| 2026-05-03 20:31 | 46.84324 | -1.30811 | 33069 ft | 488 kts | 341° |
| 2026-05-03 20:31 | 46.87626 | -1.31951 | 33447 ft | 486 kts | 341° |
| 2026-05-03 20:31 | 46.90859 | -1.33063 | 33919 ft | 470 kts | 341° |
| 2026-05-03 20:31 | 46.93989 | -1.34137 | 33965 ft | 456 kts | 340° |
| 2026-05-03 20:32 | 46.97056 | -1.35195 | 33974 ft | 451 kts | 340° |
| 2026-05-03 20:32 | 47.03135 | -1.37328 | 33963 ft | 448 kts | 340° |
| 2026-05-03 20:33 | 47.09200 | -1.39459 | 33957 ft | 448 kts | 340° |
| 2026-05-03 20:33 | 47.15268 | -1.41572 | 33972 ft | 448 kts | 340° |
| 2026-05-03 20:34 | 47.21330 | -1.43685 | 33986 ft | 448 kts | 340° |
| 2026-05-03 20:34 | 47.27389 | -1.45812 | 33979 ft | 447 kts | 340° |
| 2026-05-03 20:35 | 47.33441 | -1.47937 | 33968 ft | 447 kts | 340° |
| 2026-05-03 20:35 | 47.39496 | -1.50066 | 33975 ft | 447 kts | 340° |
| 2026-05-03 20:36 | 47.45541 | -1.52196 | 33969 ft | 446 kts | 340° |
| 2026-05-03 20:36 | 47.51536 | -1.54319 | 33956 ft | 446 kts | 340° |
| 2026-05-03 20:37 | 47.57568 | -1.56461 | 33951 ft | 446 kts | 340° |
| 2026-05-03 20:37 | 47.63584 | -1.58598 | 33959 ft | 445 kts | 340° |
| 2026-05-03 20:38 | 47.69611 | -1.60749 | 33962 ft | 445 kts | 340° |
| 2026-05-03 20:38 | 47.75625 | -1.62904 | 33957 ft | 445 kts | 340° |
| 2026-05-03 20:39 | 47.81635 | -1.65064 | 33982 ft | 444 kts | 340° |
| 2026-05-03 20:39 | 47.87648 | -1.67219 | 33979 ft | 444 kts | 341° |
| 2026-05-03 20:40 | 47.93659 | -1.69383 | 34002 ft | 444 kts | 341° |
| 2026-05-03 20:40 | 47.99642 | -1.71542 | 33987 ft | 444 kts | 341° |
| 2026-05-03 20:41 | 48.05661 | -1.73653 | 33981 ft | 446 kts | 346° |
| 2026-05-03 20:41 | 48.11896 | -1.74233 | 33971 ft | 452 kts | 356° |
| 2026-05-03 20:42 | 48.18181 | -1.74296 | 33961 ft | 452 kts | 356° |
| 2026-05-03 20:42 | 48.24474 | -1.74376 | 33970 ft | 452 kts | 356° |
| 2026-05-03 20:43 | 48.30758 | -1.74455 | 33959 ft | 451 kts | 356° |
| 2026-05-03 20:43 | 48.37037 | -1.74537 | 33949 ft | 451 kts | 356° |
| 2026-05-03 20:44 | 48.43315 | -1.74610 | 33959 ft | 451 kts | 356° |
| 2026-05-03 20:44 | 48.49591 | -1.74687 | 33963 ft | 450 kts | 356° |
| 2026-05-03 20:45 | 48.55858 | -1.74765 | 33961 ft | 450 kts | 356° |
| 2026-05-03 20:45 | 48.62073 | -1.74841 | 33959 ft | 450 kts | 356° |
| 2026-05-03 20:46 | 48.68374 | -1.74915 | 33971 ft | 449 kts | 356° |
| 2026-05-03 20:46 | 48.74579 | -1.74990 | 33967 ft | 449 kts | 356° |
| 2026-05-03 20:47 | 48.80816 | -1.75071 | 33967 ft | 448 kts | 356° |
| 2026-05-03 20:47 | 48.87062 | -1.75153 | 33958 ft | 455 kts | 356° |
| 2026-05-03 20:48 | 48.93515 | -1.75211 | 33958 ft | 473 kts | 357° |
| 2026-05-03 20:48 | 49.00243 | -1.74984 | 33956 ft | 487 kts | 359° |
| 2026-05-03 20:49 | 49.06985 | -1.74623 | 33970 ft | 489 kts | 359° |
| 2026-05-03 20:49 | 49.13779 | -1.74308 | 33957 ft | 488 kts | 359° |
| 2026-05-03 20:50 | 49.20554 | -1.74048 | 33956 ft | 487 kts | 359° |
| 2026-05-03 20:50 | 49.27318 | -1.73803 | 33951 ft | 487 kts | 359° |
| 2026-05-03 20:50 | 49.30704 | -1.73680 | 33704 ft | 487 kts | 359° |
| 2026-05-03 20:51 | 49.34097 | -1.73553 | 33423 ft | 487 kts | 359° |
| 2026-05-03 20:51 | 49.37476 | -1.73425 | 33149 ft | 486 kts | 359° |
| 2026-05-03 20:51 | 49.40859 | -1.73297 | 32882 ft | 486 kts | 359° |
| 2026-05-03 20:51 | 49.44239 | -1.73164 | 32617 ft | 486 kts | 359° |
| 2026-05-03 20:52 | 49.47619 | -1.73030 | 32348 ft | 486 kts | 359° |
| 2026-05-03 20:52 | 49.51000 | -1.72896 | 32086 ft | 485 kts | 359° |
| 2026-05-03 20:52 | 49.54369 | -1.72758 | 31838 ft | 482 kts | 359° |
| 2026-05-03 20:52 | 49.57718 | -1.72570 | 31577 ft | 481 kts | 3° |
| 2026-05-03 20:53 | 49.61010 | -1.71721 | 31323 ft | 481 kts | 14° |
| 2026-05-03 20:53 | 49.64184 | -1.70113 | 31073 ft | 480 kts | 19° |
| 2026-05-03 20:53 | 49.67317 | -1.68380 | 30818 ft | 478 kts | 19° |
| 2026-05-03 20:53 | 49.70439 | -1.66651 | 30577 ft | 476 kts | 19° |
| 2026-05-03 20:54 | 49.73548 | -1.64929 | 30341 ft | 474 kts | 19° |
| 2026-05-03 20:54 | 49.79709 | -1.61520 | 29823 ft | 467 kts | 19° |
| 2026-05-03 20:54 | 49.82757 | -1.59831 | 29530 ft | 464 kts | 19° |
| 2026-05-03 20:55 | 49.85789 | -1.58147 | 29249 ft | 462 kts | 19° |
| 2026-05-03 20:55 | 49.88807 | -1.56467 | 28963 ft | 460 kts | 19° |
| 2026-05-03 20:55 | 49.91815 | -1.54792 | 28683 ft | 458 kts | 19° |
| 2026-05-03 20:55 | 49.94805 | -1.53124 | 28413 ft | 455 kts | 19° |
| 2026-05-03 20:56 | 49.97780 | -1.51464 | 28133 ft | 453 kts | 19° |
| 2026-05-03 20:56 | 50.00737 | -1.49818 | 27856 ft | 450 kts | 18° |
| 2026-05-03 20:56 | 50.03696 | -1.48263 | 27587 ft | 448 kts | 17° |
| 2026-05-03 20:56 | 50.06663 | -1.46802 | 27321 ft | 446 kts | 16° |
| 2026-05-03 20:57 | 50.09621 | -1.45401 | 27057 ft | 444 kts | 15° |
| 2026-05-03 20:57 | 50.12566 | -1.44018 | 26740 ft | 439 kts | 15° |
| 2026-05-03 20:57 | 50.15480 | -1.42637 | 26200 ft | 436 kts | 16° |
| 2026-05-03 20:57 | 50.18323 | -1.41272 | 25702 ft | 432 kts | 16° |
| 2026-05-03 20:58 | 50.21217 | -1.39861 | 25197 ft | 429 kts | 16° |
| 2026-05-03 20:58 | 50.24012 | -1.38483 | 24696 ft | 425 kts | 17° |
| 2026-05-03 20:58 | 50.26858 | -1.37075 | 24195 ft | 422 kts | 16° |
| 2026-05-03 20:58 | 50.29609 | -1.35715 | 23728 ft | 419 kts | 16° |
| 2026-05-03 20:59 | 50.32378 | -1.34347 | 23213 ft | 416 kts | 16° |
| 2026-05-03 20:59 | 50.35128 | -1.32989 | 22747 ft | 411 kts | 16° |
| 2026-05-03 20:59 | 50.37827 | -1.31655 | 22285 ft | 407 kts | 16° |
| 2026-05-03 20:59 | 50.40514 | -1.30324 | 21811 ft | 403 kts | 16° |
| 2026-05-03 21:00 | 50.43177 | -1.29002 | 21349 ft | 400 kts | 17° |
| 2026-05-03 21:00 | 50.44069 | -1.28558 | 21197 ft | 398 kts | 17° |
| 2026-05-03 21:00 | 50.48423 | -1.26320 | 20407 ft | 394 kts | 21° |
| 2026-05-03 21:00 | 50.50857 | -1.24394 | 19927 ft | 392 kts | 32° |
| 2026-05-03 21:01 | 50.53039 | -1.21853 | 19447 ft | 389 kts | 40° |
| 2026-05-03 21:01 | 50.55108 | -1.19132 | 18960 ft | 387 kts | 40° |
| 2026-05-03 21:01 | 50.57172 | -1.16416 | 18479 ft | 386 kts | 40° |
| 2026-05-03 21:01 | 50.59224 | -1.13717 | 17970 ft | 384 kts | 40° |
| 2026-05-03 21:02 | 50.61270 | -1.11021 | 17464 ft | 381 kts | 40° |
| 2026-05-03 21:02 | 50.62612 | -1.09251 | 17156 ft | 379 kts | 40° |
| 2026-05-03 21:02 | 50.64626 | -1.06593 | 16697 ft | 376 kts | 40° |
| 2026-05-03 21:02 | 50.66498 | -1.03744 | 16232 ft | 373 kts | 51° |
| 2026-05-03 21:03 | 50.68130 | -1.00602 | 15779 ft | 370 kts | 52° |
| 2026-05-03 21:03 | 50.69752 | -0.97468 | 15311 ft | 367 kts | 52° |
| 2026-05-03 21:03 | 50.71363 | -0.94361 | 14870 ft | 365 kts | 52° |
| 2026-05-03 21:03 | 50.72962 | -0.91283 | 14419 ft | 363 kts | 52° |
| 2026-05-03 21:04 | 50.74553 | -0.88216 | 13972 ft | 360 kts | 52° |
| 2026-05-03 21:04 | 50.76137 | -0.85160 | 13495 ft | 359 kts | 52° |
| 2026-05-03 21:04 | 50.77701 | -0.82130 | 13170 ft | 351 kts | 52° |
| 2026-05-03 21:04 | 50.79188 | -0.79243 | 13005 ft | 328 kts | 52° |
| 2026-05-03 21:05 | 50.80461 | -0.76374 | 12842 ft | 312 kts | 63° |
| 2026-05-03 21:05 | 50.81316 | -0.73222 | 12734 ft | 314 kts | 75° |
| 2026-05-03 21:05 | 50.81779 | -0.69920 | 12265 ft | 307 kts | 82° |
| 2026-05-03 21:05 | 50.82164 | -0.66606 | 11870 ft | 306 kts | 82° |
| 2026-05-03 21:06 | 50.82545 | -0.63310 | 11471 ft | 304 kts | 81° |
| 2026-05-03 21:06 | 50.82926 | -0.60029 | 11092 ft | 303 kts | 81° |
| 2026-05-03 21:06 | 50.83303 | -0.56771 | 10716 ft | 301 kts | 81° |
| 2026-05-03 21:06 | 50.83680 | -0.53519 | 10336 ft | 299 kts | 81° |
| 2026-05-03 21:07 | 50.84054 | -0.50289 | 9961 ft | 298 kts | 81° |
| 2026-05-03 21:07 | 50.84424 | -0.47074 | 9563 ft | 296 kts | 81° |
| 2026-05-03 21:07 | 50.84788 | -0.43878 | 9180 ft | 294 kts | 81° |
| 2026-05-03 21:07 | 50.85150 | -0.40705 | 8808 ft | 292 kts | 81° |
| 2026-05-03 21:08 | 50.85509 | -0.37550 | 8436 ft | 290 kts | 81° |
| 2026-05-03 21:08 | 50.85858 | -0.34462 | 8075 ft | 288 kts | 81° |
| 2026-05-03 21:08 | 50.86211 | -0.31350 | 7710 ft | 286 kts | 81° |
| 2026-05-03 21:08 | 50.86564 | -0.28220 | 7342 ft | 284 kts | 81° |
| 2026-05-03 21:09 | 50.86905 | -0.25196 | 7004 ft | 282 kts | 81° |
| 2026-05-03 21:09 | 50.87248 | -0.22153 | 6914 ft | 280 kts | 81° |
| 2026-05-03 21:09 | 50.87587 | -0.19114 | 6924 ft | 282 kts | 81° |
| 2026-05-03 21:09 | 50.87924 | -0.16110 | 6887 ft | 270 kts | 81° |
| 2026-05-03 21:10 | 50.88240 | -0.13291 | 6689 ft | 252 kts | 81° |
| 2026-05-03 21:10 | 50.88543 | -0.10602 | 6241 ft | 245 kts | 81° |
| 2026-05-03 21:10 | 50.88991 | -0.08008 | 5792 ft | 247 kts | 67° |
| 2026-05-03 21:10 | 50.89684 | -0.05470 | 5399 ft | 247 kts | 69° |
| 2026-05-03 21:11 | 50.90303 | -0.03007 | 5270 ft | 235 kts | 69° |
| 2026-05-03 21:11 | 50.90893 | -0.00631 | 5043 ft | 229 kts | 69° |
| 2026-05-03 21:11 | 50.91470 | 0.01707 | 4790 ft | 226 kts | 69° |
| 2026-05-03 21:11 | 50.92040 | 0.04020 | 4536 ft | 225 kts | 69° |
| 2026-05-03 21:12 | 50.92603 | 0.06312 | 4287 ft | 224 kts | 69° |
| 2026-05-03 21:12 | 50.93163 | 0.08603 | 4086 ft | 222 kts | 69° |
| 2026-05-03 21:12 | 50.93721 | 0.10889 | 4035 ft | 222 kts | 69° |
| 2026-05-03 21:12 | 50.94279 | 0.13179 | 4039 ft | 223 kts | 69° |
| 2026-05-03 21:13 | 50.94839 | 0.15473 | 4044 ft | 223 kts | 69° |
| 2026-05-03 21:13 | 50.95399 | 0.17769 | 4048 ft | 223 kts | 69° |
| 2026-05-03 21:13 | 50.95959 | 0.20062 | 4053 ft | 223 kts | 69° |
| 2026-05-03 21:13 | 50.96518 | 0.22355 | 4058 ft | 223 kts | 69° |
| 2026-05-03 21:14 | 50.97076 | 0.24652 | 4060 ft | 223 kts | 69° |
| 2026-05-03 21:14 | 50.97635 | 0.26951 | 4065 ft | 223 kts | 69° |
| 2026-05-03 21:14 | 50.98195 | 0.29246 | 4069 ft | 223 kts | 69° |
| 2026-05-03 21:14 | 50.98753 | 0.31535 | 4067 ft | 223 kts | 68° |
| 2026-05-03 21:15 | 50.99598 | 0.33559 | 3843 ft | 222 kts | 38° |
| 2026-05-03 21:15 | 51.00982 | 0.34511 | 3562 ft | 218 kts | 6° |
| 2026-05-03 21:15 | 51.02504 | 0.34621 | 3313 ft | 219 kts | 359° |
| 2026-05-03 21:15 | 51.04026 | 0.34566 | 3065 ft | 218 kts | 355° |
| 2026-05-03 21:16 | 51.05536 | 0.34409 | 2823 ft | 215 kts | 354° |
| 2026-05-03 21:16 | 51.06956 | 0.33966 | 2692 ft | 203 kts | 331° |
| 2026-05-03 21:16 | 51.08095 | 0.32754 | 2567 ft | 193 kts | 320° |
| 2026-05-03 21:16 | 51.09121 | 0.31426 | 2443 ft | 188 kts | 319° |
| 2026-05-03 21:17 | 51.10120 | 0.30094 | 2316 ft | 186 kts | 318° |
| 2026-05-03 21:17 | 51.10776 | 0.29217 | 2236 ft | 185 kts | 318° |
| 2026-05-03 21:17 | 51.12094 | 0.27454 | 2123 ft | 185 kts | 318° |
| 2026-05-03 21:17 | 51.13074 | 0.26142 | 2108 ft | 184 kts | 318° |
| 2026-05-03 21:18 | 51.14055 | 0.24830 | 2102 ft | 184 kts | 318° |
| 2026-05-03 21:18 | 51.15027 | 0.23503 | 2102 ft | 184 kts | 313° |
| 2026-05-03 21:18 | 51.15838 | 0.21944 | 2102 ft | 183 kts | 305° |
| 2026-05-03 21:18 | 51.16577 | 0.20295 | 2099 ft | 183 kts | 303° |
| 2026-05-03 21:19 | 51.17302 | 0.18631 | 2094 ft | 183 kts | 303° |
| 2026-05-03 21:19 | 51.18024 | 0.16969 | 2089 ft | 182 kts | 303° |
| 2026-05-03 21:19 | 51.18728 | 0.15292 | 2082 ft | 182 kts | 296° |
| 2026-05-03 21:19 | 51.19088 | 0.13389 | 2078 ft | 181 kts | 272° |
| 2026-05-03 21:20 | 51.18954 | 0.11412 | 2075 ft | 181 kts | 257° |
| 2026-05-03 21:20 | 51.18689 | 0.09451 | 2068 ft | 181 kts | 257° |
| 2026-05-03 21:20 | 51.18424 | 0.07490 | 2065 ft | 181 kts | 258° |
| 2026-05-03 21:20 | 51.18161 | 0.05542 | 2054 ft | 175 kts | 257° |
| 2026-05-03 21:21 | 51.17914 | 0.03709 | 2049 ft | 165 kts | 258° |
| 2026-05-03 21:21 | 51.17674 | 0.01937 | 2046 ft | 163 kts | 258° |
| 2026-05-03 21:21 | 51.17437 | 0.00192 | 2078 ft | 160 kts | 257° |
| 2026-05-03 21:21 | 51.17200 | -0.01557 | 2054 ft | 160 kts | 257° |
| 2026-05-03 21:22 | 51.16974 | -0.03222 | 1934 ft | 146 kts | 257° |
| 2026-05-03 21:22 | 51.16765 | -0.04762 | 1810 ft | 139 kts | 257° |
| 2026-05-03 21:22 | 51.16563 | -0.06244 | 1633 ft | 136 kts | 257° |
| 2026-05-03 21:22 | 51.16364 | -0.07706 | 1453 ft | 134 kts | 257° |
| 2026-05-03 21:23 | 51.16166 | -0.09156 | 1282 ft | 134 kts | 257° |
| 2026-05-03 21:23 | 51.15968 | -0.10603 | 1086 ft | 134 kts | 257° |
| 2026-05-03 21:23 | 51.15770 | -0.12052 | 903 ft | 134 kts | 256° |
| 2026-05-03 21:23 | 51.15574 | -0.13481 | 733 ft | 133 kts | 256° |
| 2026-05-03 21:24 | 51.15378 | -0.14928 | 536 ft | 134 kts | 256° |
| 2026-05-03 21:24 | 51.15175 | -0.16370 | 331 ft | 133 kts | 256° |
| 2026-05-03 21:24 | 51.14986 | -0.17793 | 210 ft | 123 kts | 257° |
| 2026-05-03 21:24 | 51.14832 | -0.18871 | 205 ft | 75 kts | 257° |
| 2026-05-03 21:25 | 51.14774 | -0.19476 | 210 ft | 27 kts | 287° |
| 2026-05-03 21:25 | 51.14825 | -0.19768 | 208 ft | 28 kts | 282° |
| 2026-05-03 21:25 | 51.14875 | -0.19879 | 210 ft | 7 kts | 21° |
| 2026-05-03 21:25 | 51.14896 | -0.19790 | 210 ft | 16 kts | 76° |
| 2026-05-03 21:26 | 51.14930 | -0.19522 | 212 ft | 26 kts | 79° |
| 2026-05-03 21:26 | 51.14959 | -0.19305 | 209 ft | 2 kts | 77° |
| 2026-05-03 21:26 | 51.14965 | -0.19284 | 208 ft | 3 kts | 56° |
| 2026-05-03 21:26 | 51.15006 | -0.19266 | 206 ft | 14 kts | 359° |
| 2026-05-03 21:27 | 51.15071 | -0.19119 | 204 ft | 21 kts | 80° |
| 2026-05-03 21:27 | 51.15105 | -0.18909 | 211 ft | 25 kts | 79° |
| 2026-05-03 21:27 | 51.15151 | -0.18579 | 204 ft | 35 kts | 77° |
| 2026-05-03 21:27 | 51.15187 | -0.18291 | 207 ft | 16 kts | 82° |
| 2026-05-03 21:28 | 51.15250 | -0.18228 | 204 ft | 14 kts | 350° |
| 2026-05-03 21:28 | 51.15370 | -0.18272 | 205 ft | 19 kts | 347° |
| 2026-05-03 21:28 | 51.15445 | -0.18174 | 204 ft | 16 kts | 76° |
| 2026-05-03 21:28 | 51.15478 | -0.17942 | 210 ft | 28 kts | 77° |
| 2026-05-03 21:29 | 51.15515 | -0.17680 | 210 ft | 11 kts | 78° |
| 2026-05-03 21:29 | 51.15548 | -0.17668 | 208 ft | 4 kts | 349° |
| 2026-05-03 21:29 | 51.15576 | -0.17678 | 204 ft | 2 kts | 346° |
| 2026-05-03 21:29 | 51.15585 | -0.17681 | 214 ft | 0 kts | 347° |